Wetterdaten: Woche 18.06.12 - 24.06.12 (KW25)
Datum Zeit Temp. A. Feuchte A. Luftdruck Regen Wind Richtung Taupunkt Windchill Windben
18.06.2012 00:00 20,6 C 79 % 1019,1 hPa 0,0 l/m 0,0 km/h N 16,9 C 20,6 C 0,8 km/h
18.06.2012 01:00 19,8 C 81 % 1018,9 hPa 0,0 l/m 0,0 km/h N 16,4 C 19,8 C 0,8 km/h
18.06.2012 02:00 18,8 C 81 % 1018,8 hPa 0,0 l/m 0,0 km/h N 15,5 C 18,8 C 0,0 km/h
18.06.2012 03:00 18,1 C 81 % 1018,3 hPa 0,0 l/m 0,0 km/h N 14,8 C 18,1 C 0,0 km/h
18.06.2012 04:00 17,5 C 81 % 1018,1 hPa 0,0 l/m 0,0 km/h N 14,1 C 17,5 C 0,0 km/h
18.06.2012 05:00 17,0 C 80 % 1018,1 hPa 0,0 l/m 0,0 km/h N 13,5 C 17,0 C 0,0 km/h
18.06.2012 06:00 17,3 C 78 % 1018,0 hPa 0,0 l/m 0,0 km/h N 13,4 C 17,3 C 0,0 km/h
18.06.2012 07:00 19,2 C 76 % 1017,8 hPa 0,0 l/m 0,1 km/h N 14,9 C 19,2 C 2,4 km/h
18.06.2012 08:00 22,8 C 76 % 1017,6 hPa 0,0 l/m 2,2 km/h N 18,3 C 22,8 C 8,4 km/h
18.06.2012 09:00 25,9 C 66 % 1017,1 hPa 0,0 l/m 3,3 km/h N 18,9 C 25,9 C 12,5 km/h
18.06.2012 10:00 28,9 C 49 % 1016,6 hPa 0,0 l/m 12,1 km/h N 17,0 C 28,3 C 29,8 km/h
18.06.2012 11:00 30,3 C 42 % 1016,3 hPa 0,0 l/m 12,8 km/h N 15,8 C 29,8 C 32,2 km/h
18.06.2012 12:00 31,3 C 39 % 1015,7 hPa 0,0 l/m 12,4 km/h N 15,8 C 31,0 C 30,2 km/h
18.06.2012 13:00 32,0 C 37 % 1015,2 hPa 0,0 l/m 12,0 km/h N 15,2 C 31,8 C 27,8 km/h
18.06.2012 14:00 32,6 C 34 % 1014,7 hPa 0,0 l/m 11,7 km/h N 14,7 C 32,6 C 26,5 km/h
18.06.2012 15:00 32,7 C 35 % 1014,3 hPa 0,0 l/m 10,9 km/h N 15,0 C 32,7 C 26,1 km/h
18.06.2012 16:00 32,6 C 35 % 1013,9 hPa 0,0 l/m 9,7 km/h N 15,2 C 32,5 C 25,0 km/h
18.06.2012 17:00 32,5 C 35 % 1013,6 hPa 0,0 l/m 8,9 km/h N 15,1 C 32,5 C 23,3 km/h
18.06.2012 18:00 32,3 C 35 % 1013,6 hPa 0,0 l/m 7,7 km/h N 14,9 C 32,2 C 23,3 km/h
18.06.2012 19:00 31,6 C 38 % 1013,6 hPa 0,0 l/m 6,0 km/h N 15,3 C 31,6 C 19,7 km/h
18.06.2012 20:00 30,2 C 41 % 1013,7 hPa 0,0 l/m 2,8 km/h N 15,4 C 30,2 C 10,4 km/h
18.06.2012 21:00 27,7 C 48 % 1014,3 hPa 0,0 l/m 0,2 km/h N 15,6 C 27,7 C 2,0 km/h
18.06.2012 22:00 24,2 C 58 % 1014,6 hPa 0,0 l/m 0,0 km/h N 15,4 C 24,2 C 0,4 km/h
18.06.2012 23:00 21,8 C 68 % 1014,6 hPa 0,0 l/m 0,0 km/h N 15,6 C 21,8 C 0,4 km/h
19.06.2012 00:00 20,4 C 73 % 1014,6 hPa 0,0 l/m 0,0 km/h N 15,4 C 20,4 C 0,8 km/h
19.06.2012 01:00 20,5 C 72 % 1014,8 hPa 0,0 l/m 0,0 km/h N 15,2 C 20,5 C 0,8 km/h
19.06.2012 02:00 19,8 C 74 % 1014,9 hPa 0,0 l/m 0,0 km/h N 14,9 C 19,8 C 1,6 km/h
19.06.2012 03:00 18,9 C 77 % 1015,0 hPa 0,0 l/m 0,0 km/h N 14,6 C 18,9 C 0,0 km/h
19.06.2012 04:00 17,9 C 80 % 1015,3 hPa 0,0 l/m 0,0 km/h N 14,4 C 17,9 C 0,0 km/h
19.06.2012 05:00 17,4 C 81 % 1015,7 hPa 0,0 l/m 0,0 km/h N 14,1 C 17,4 C 0,8 km/h
19.06.2012 06:00 18,2 C 81 % 1016,1 hPa 0,0 l/m 0,0 km/h N 14,8 C 18,2 C 0,0 km/h
19.06.2012 07:00 21,4 C 76 % 1016,5 hPa 0,0 l/m 2,8 km/h N 16,9 C 21,4 C 10,4 km/h
19.06.2012 08:00 24,9 C 64 % 1016,9 hPa 0,0 l/m 8,3 km/h N 17,6 C 24,5 C 20,5 km/h
19.06.2012 09:00 25,6 C 64 % 1017,5 hPa 0,0 l/m 11,9 km/h N 18,1 C 24,5 C 26,6 km/h
19.06.2012 10:00 26,5 C 63 % 1017,6 hPa 0,0 l/m 9,3 km/h N 18,9 C 26,0 C 22,5 km/h
19.06.2012 11:00 26,9 C 63 % 1017,7 hPa 0,0 l/m 9,5 km/h N 19,2 C 26,3 C 23,3 km/h
19.06.2012 12:00 27,4 C 63 % 1017,3 hPa 0,0 l/m 7,9 km/h N 19,8 C 27,2 C 19,3 km/h
19.06.2012 13:00 27,9 C 59 % 1017,0 hPa 0,0 l/m 5,3 km/h N 19,2 C 27,9 C 17,3 km/h
19.06.2012 14:00 29,0 C 56 % 1016,5 hPa 0,0 l/m 3,3 km/h N 19,1 C 29,0 C 14,5 km/h
19.06.2012 15:00 30,1 C 52 % 1016,1 hPa 0,0 l/m 1,6 km/h N 19,2 C 30,1 C 8,4 km/h
19.06.2012 16:00 30,7 C 51 % 1015,6 hPa 0,0 l/m 1,7 km/h N 19,3 C 30,7 C 9,7 km/h
19.06.2012 17:00 31,4 C 47 % 1014,8 hPa 0,0 l/m 1,8 km/h N 18,7 C 31,4 C 8,0 km/h
19.06.2012 18:00 31,8 C 46 % 1014,2 hPa 0,0 l/m 0,9 km/h N 18,7 C 31,8 C 8,4 km/h
19.06.2012 19:00 31,7 C 47 % 1013,7 hPa 0,0 l/m 0,1 km/h N 18,9 C 31,7 C 4,0 km/h
19.06.2012 20:00 30,3 C 49 % 1013,6 hPa 0,0 l/m 0,1 km/h N 18,2 C 30,3 C 2,0 km/h
19.06.2012 21:00 27,1 C 57 % 1013,9 hPa 0,0 l/m 0,0 km/h N 17,8 C 27,1 C 0,0 km/h
19.06.2012 22:00 23,7 C 68 % 1014,2 hPa 0,0 l/m 0,0 km/h N 17,5 C 23,7 C 0,0 km/h
19.06.2012 23:00 22,0 C 74 % 1014,2 hPa 0,0 l/m 0,0 km/h N 17,1 C 22,0 C 0,0 km/h
20.06.2012 00:00 20,8 C 79 % 1013,8 hPa 0,0 l/m 0,0 km/h N 16,9 C 20,8 C 0,4 km/h
20.06.2012 01:00 19,9 C 81 % 1013,4 hPa 0,0 l/m 0,0 km/h N 16,5 C 19,9 C 0,0 km/h
20.06.2012 02:00 19,1 C 81 % 1013,3 hPa 0,0 l/m 0,0 km/h N 15,8 C 19,1 C 0,0 km/h
20.06.2012 03:00 18,3 C 81 % 1012,8 hPa 0,0 l/m 0,0 km/h N 15,0 C 18,3 C 0,0 km/h
20.06.2012 04:00 17,9 C 80 % 1012,4 hPa 0,0 l/m 0,0 km/h N 14,4 C 17,9 C 0,0 km/h
20.06.2012 05:00 17,7 C 80 % 1012,1 hPa 0,0 l/m 0,0 km/h N 14,1 C 17,7 C 0,0 km/h
20.06.2012 06:00 18,5 C 77 % 1011,9 hPa 0,0 l/m 0,0 km/h N 14,5 C 18,5 C 0,8 km/h
20.06.2012 07:00 20,7 C 79 % 1011,7 hPa 0,0 l/m 0,1 km/h N 17,0 C 20,7 C 2,4 km/h
20.06.2012 08:00 25,0 C 71 % 1011,4 hPa 0,0 l/m 0,2 km/h N 19,2 C 25,0 C 3,6 km/h
20.06.2012 09:00 29,0 C 55 % 1010,9 hPa 0,0 l/m 6,3 km/h N 18,9 C 28,9 C 20,5 km/h
20.06.2012 10:00 31,0 C 48 % 1010,8 hPa 0,0 l/m 8,5 km/h N 18,7 C 30,9 C 22,9 km/h
20.06.2012 11:00 32,3 C 44 % 1010,9 hPa 0,0 l/m 8,1 km/h N 18,3 C 32,3 C 23,7 km/h
20.06.2012 12:00 33,3 C 42 % 1010,7 hPa 0,0 l/m 5,4 km/h N 18,4 C 33,3 C 19,7 km/h
20.06.2012 13:00 34,0 C 42 % 1010,4 hPa 0,0 l/m 2,0 km/h N 19,3 C 34,0 C 12,1 km/h
20.06.2012 14:00 33,3 C 41 % 1009,7 hPa 0,0 l/m 1,4 km/h N 18,2 C 33,3 C 9,7 km/h
20.06.2012 15:00 34,5 C 41 % 1009,2 hPa 0,0 l/m 1,6 km/h N 19,2 C 34,5 C 9,6 km/h
20.06.2012 16:00 33,5 C 43 % 1008,5 hPa 0,0 l/m 2,4 km/h N 18,9 C 33,5 C 13,3 km/h
20.06.2012 17:00 31,9 C 46 % 1008,5 hPa 0,0 l/m 1,6 km/h N 18,7 C 31,9 C 11,7 km/h
20.06.2012 18:00 30,6 C 49 % 1008,1 hPa 0,0 l/m 0,6 km/h N 18,6 C 30,6 C 5,6 km/h
20.06.2012 19:00 29,4 C 55 % 1007,8 hPa 0,0 l/m 0,1 km/h N 19,3 C 29,4 C 2,0 km/h
20.06.2012 20:00 27,6 C 62 % 1007,8 hPa 0,0 l/m 0,2 km/h N 19,7 C 27,6 C 3,2 km/h
20.06.2012 21:00 26,6 C 68 % 1007,8 hPa 0,0 l/m 0,0 km/h N 20,1 C 26,6 C 0,4 km/h
20.06.2012 22:00 25,5 C 75 % 1008,7 hPa 0,5 l/m 0,4 km/h N 20,6 C 25,5 C 6,4 km/h
20.06.2012 23:00 22,9 C 79 % 1009,4 hPa 2,3 l/m 1,7 km/h N 18,9 C 22,9 C 10,4 km/h
21.06.2012 00:00 20,9 C 80 % 1009,4 hPa 1,6 l/m 1,5 km/h N 17,3 C 20,9 C 8,9 km/h
21.06.2012 01:00 20,5 C 80 % 1009,1 hPa 0,0 l/m 0,9 km/h N 16,9 C 20,5 C 11,3 km/h
21.06.2012 02:00 20,4 C 80 % 1009,1 hPa 0,0 l/m 3,1 km/h N 16,8 C 20,4 C 10,5 km/h
21.06.2012 03:00 20,3 C 81 % 1009,6 hPa 0,0 l/m 2,8 km/h N 16,9 C 20,3 C 11,6 km/h
21.06.2012 04:00 20,3 C 81 % 1009,7 hPa 0,0 l/m 10,0 km/h N 16,9 C 18,9 C 24,1 km/h
21.06.2012 05:00 20,4 C 80 % 1009,8 hPa 0,0 l/m 7,0 km/h N 16,9 C 20,1 C 18,5 km/h
21.06.2012 06:00 20,3 C 81 % 1010,0 hPa 0,0 l/m 0,7 km/h N 16,9 C 20,3 C 3,2 km/h
21.06.2012 07:00 20,8 C 80 % 1010,1 hPa 0,0 l/m 3,2 km/h N 17,2 C 20,8 C 10,9 km/h
21.06.2012 08:00 22,8 C 74 % 1010,1 hPa 0,0 l/m 6,3 km/h N 17,9 C 22,6 C 15,3 km/h
21.06.2012 09:00 23,1 C 73 % 1010,1 hPa 0,0 l/m 6,8 km/h N 18,0 C 22,9 C 18,5 km/h
21.06.2012 10:00 23,9 C 70 % 1010,1 hPa 0,0 l/m 4,8 km/h N 18,1 C 23,8 C 14,1 km/h
21.06.2012 11:00 25,9 C 63 % 1009,9 hPa 0,0 l/m 3,7 km/h N 18,3 C 25,9 C 12,9 km/h
21.06.2012 12:00 27,1 C 60 % 1009,5 hPa 0,0 l/m 3,3 km/h N 18,6 C 27,1 C 11,3 km/h
21.06.2012 13:00 27,9 C 60 % 1009,2 hPa 0,0 l/m 3,0 km/h N 19,4 C 27,9 C 10,9 km/h
21.06.2012 14:00 28,9 C 55 % 1008,8 hPa 0,0 l/m 2,6 km/h N 18,7 C 28,9 C 9,7 km/h
21.06.2012 15:00 29,9 C 53 % 1008,3 hPa 0,0 l/m 1,3 km/h N 19,3 C 29,9 C 8,0 km/h
21.06.2012 16:00 29,6 C 54 % 1008,1 hPa 0,0 l/m 0,2 km/h N 19,3 C 29,6 C 3,2 km/h
21.06.2012 17:00 28,5 C 57 % 1007,6 hPa 0,0 l/m 0,0 km/h N 19,1 C 28,5 C 1,6 km/h
21.06.2012 18:00 27,6 C 59 % 1007,4 hPa 0,0 l/m 0,5 km/h N 18,9 C 27,6 C 4,4 km/h
21.06.2012 19:00 26,8 C 63 % 1007,6 hPa 0,0 l/m 0,0 km/h N 19,2 C 26,8 C 0,8 km/h
21.06.2012 20:00 25,5 C 67 % 1007,7 hPa 0,0 l/m 0,5 km/h N 18,8 C 25,5 C 3,2 km/h
21.06.2012 21:00 24,6 C 73 % 1008,1 hPa 0,0 l/m 0,4 km/h N 19,3 C 24,6 C 5,2 km/h
21.06.2012 22:00 23,3 C 78 % 1009,0 hPa 0,0 l/m 0,2 km/h N 19,3 C 23,3 C 4,0 km/h
21.06.2012 23:00 22,7 C 78 % 1008,8 hPa 0,0 l/m 1,0 km/h N 18,7 C 22,7 C 6,8 km/h
22.06.2012 00:00 22,6 C 75 % 1009,1 hPa 0,0 l/m 1,4 km/h N 18,0 C 22,6 C 8,0 km/h
22.06.2012 01:00 21,7 C 78 % 1008,7 hPa 0,0 l/m 0,1 km/h N 17,7 C 21,7 C 2,4 km/h
22.06.2012 02:00 22,4 C 76 % 1008,8 hPa 0,0 l/m 6,4 km/h N 18,0 C 22,0 C 22,1 km/h
22.06.2012 03:00 23,9 C 65 % 1009,2 hPa 0,0 l/m 14,2 km/h N 17,0 C 22,2 C 29,0 km/h
22.06.2012 04:00 23,4 C 68 % 1010,4 hPa 0,0 l/m 15,3 km/h N 17,0 C 21,3 C 33,4 km/h
22.06.2012 05:00 21,7 C 70 % 1011,5 hPa 0,0 l/m 17,0 km/h N 16,0 C 18,9 C 37,8 km/h
22.06.2012 06:00 21,2 C 71 % 1012,7 hPa 0,0 l/m 14,2 km/h N 15,7 C 18,9 C 34,2 km/h
22.06.2012 07:00 21,2 C 71 % 1013,4 hPa 0,0 l/m 15,1 km/h N 15,6 C 18,7 C 34,2 km/h
22.06.2012 08:00 21,8 C 68 % 1014,0 hPa 0,0 l/m 15,0 km/h N 15,6 C 19,4 C 31,4 km/h
22.06.2012 09:00 21,9 C 67 % 1014,5 hPa 0,0 l/m 17,0 km/h N 15,5 C 19,1 C 37,0 km/h
22.06.2012 10:00 20,6 C 73 % 1015,5 hPa 0,0 l/m 11,2 km/h N 15,5 C 19,0 C 28,2 km/h
22.06.2012 11:00 20,7 C 74 % 1016,1 hPa 0,0 l/m 6,0 km/h N 15,9 C 20,6 C 18,9 km/h
22.06.2012 12:00 21,9 C 70 % 1016,2 hPa 0,0 l/m 6,1 km/h N 16,0 C 21,6 C 20,9 km/h
22.06.2012 13:00 22,8 C 66 % 1016,8 hPa 0,0 l/m 8,9 km/h N 16,0 C 22,0 C 22,9 km/h
22.06.2012 14:00 24,6 C 60 % 1016,6 hPa 0,0 l/m 10,0 km/h N 16,3 C 23,8 C 24,1 km/h
22.06.2012 15:00 25,8 C 57 % 1016,4 hPa 0,0 l/m 8,4 km/h N 16,5 C 25,3 C 24,1 km/h
22.06.2012 16:00 26,2 C 55 % 1016,4 hPa 0,0 l/m 7,2 km/h N 16,4 C 26,0 C 18,9 km/h
22.06.2012 17:00 26,7 C 51 % 1016,4 hPa 0,0 l/m 7,4 km/h N 15,8 C 26,4 C 20,9 km/h
22.06.2012 18:00 26,1 C 53 % 1016,8 hPa 0,0 l/m 5,6 km/h N 15,8 C 26,0 C 16,9 km/h
22.06.2012 19:00 23,8 C 64 % 1017,1 hPa 0,3 l/m 5,0 km/h N 16,3 C 23,6 C 17,7 km/h
22.06.2012 20:00 22,1 C 68 % 1017,4 hPa 0,0 l/m 0,8 km/h N 16,0 C 22,1 C 6,4 km/h
22.06.2012 21:00 20,5 C 71 % 1017,9 hPa 0,0 l/m 0,6 km/h N 14,9 C 20,5 C 6,8 km/h
22.06.2012 22:00 19,3 C 75 % 1018,3 hPa 0,0 l/m 0,1 km/h N 14,7 C 19,3 C 2,8 km/h
22.06.2012 23:00 17,8 C 80 % 1018,8 hPa 0,0 l/m 0,0 km/h N 14,3 C 17,8 C 0,0 km/h
23.06.2012 00:00 16,9 C 81 % 1019,3 hPa 0,0 l/m 0,1 km/h N 13,6 C 16,9 C 1,6 km/h
23.06.2012 01:00 20,0 C 69 % 1019,7 hPa 0,0 l/m 4,0 km/h N 13,9 C 20,0 C 13,3 km/h
23.06.2012 02:00 21,1 C 63 % 1020,2 hPa 0,0 l/m 6,1 km/h N 13,6 C 20,7 C 17,3 km/h
23.06.2012 03:00 19,2 C 73 % 1021,0 hPa 0,0 l/m 8,9 km/h N 14,2 C 18,2 C 23,3 km/h
23.06.2012 04:00 18,1 C 72 % 1021,3 hPa 0,3 l/m 5,1 km/h N 12,8 C 17,8 C 17,7 km/h
23.06.2012 05:00 17,7 C 72 % 1022,0 hPa 0,0 l/m 6,8 km/h N 12,5 C 17,4 C 17,7 km/h
23.06.2012 06:00 17,7 C 73 % 1022,1 hPa 0,0 l/m 4,8 km/h N 12,7 C 17,7 C 16,9 km/h
23.06.2012 07:00 17,7 C 73 % 1022,4 hPa 0,0 l/m 3,6 km/h N 12,7 C 17,7 C 10,9 km/h
23.06.2012 08:00 17,2 C 77 % 1023,0 hPa 0,8 l/m 0,9 km/h N 13,1 C 17,2 C 6,4 km/h
23.06.2012 09:00 16,4 C 81 % 1023,5 hPa 1,0 l/m 1,3 km/h N 13,0 C 16,4 C 8,1 km/h
23.06.2012 10:00 16,6 C 82 % 1023,6 hPa 0,5 l/m 0,3 km/h N 13,4 C 16,6 C 5,6 km/h
23.06.2012 11:00 17,0 C 81 % 1023,7 hPa 0,5 l/m 2,2 km/h N 13,6 C 17,0 C 9,3 km/h
23.06.2012 12:00 17,8 C 80 % 1023,5 hPa 0,5 l/m 0,8 km/h N 14,2 C 17,8 C 6,4 km/h
23.06.2012 13:00 19,1 C 78 % 1023,0 hPa 0,0 l/m 1,0 km/h N 15,1 C 19,1 C 6,8 km/h
23.06.2012 14:00 21,5 C 69 % 1022,4 hPa 0,0 l/m 4,0 km/h N 15,5 C 21,5 C 12,9 km/h
23.06.2012 15:00 23,3 C 61 % 1022,1 hPa 0,0 l/m 3,1 km/h N 15,2 C 23,3 C 9,3 km/h
23.06.2012 16:00 24,5 C 54 % 1021,4 hPa 0,0 l/m 1,2 km/h N 14,5 C 24,5 C 7,2 km/h
23.06.2012 17:00 25,8 C 49 % 1020,9 hPa 0,0 l/m 0,8 km/h N 14,2 C 25,8 C 6,8 km/h
23.06.2012 18:00 26,7 C 46 % 1020,5 hPa 0,0 l/m 0,4 km/h N 14,2 C 26,7 C 3,6 km/h
23.06.2012 19:00 26,3 C 49 % 1020,5 hPa 0,0 l/m 0,1 km/h N 14,8 C 26,3 C 2,4 km/h
23.06.2012 20:00 24,7 C 55 % 1020,8 hPa 0,0 l/m 0,1 km/h N 14,9 C 24,7 C 1,6 km/h
23.06.2012 21:00 21,2 C 66 % 1021,2 hPa 0,0 l/m 0,0 km/h N 14,5 C 21,2 C 0,4 km/h
23.06.2012 22:00 18,8 C 74 % 1021,6 hPa 0,0 l/m 0,0 km/h N 14,0 C 18,8 C 0,4 km/h
23.06.2012 23:00 17,6 C 78 % 1021,6 hPa 0,0 l/m 1,2 km/h N 13,8 C 17,6 C 6,0 km/h
24.06.2012 00:00 16,7 C 80 % 1021,6 hPa 0,0 l/m 0,5 km/h N 13,2 C 16,7 C 4,0 km/h
24.06.2012 01:00 16,0 C 82 % 1021,5 hPa 0,0 l/m 0,0 km/h N 12,9 C 16,0 C 0,4 km/h
24.06.2012 02:00 16,0 C 82 % 1021,3 hPa 0,0 l/m 0,1 km/h N 13,0 C 16,0 C 2,8 km/h
24.06.2012 03:00 15,2 C 82 % 1021,3 hPa 0,0 l/m 0,0 km/h N 12,2 C 15,2 C 1,2 km/h
24.06.2012 04:00 14,7 C 82 % 1021,0 hPa 0,0 l/m 0,1 km/h N 11,6 C 14,7 C 1,2 km/h
24.06.2012 05:00 14,6 C 81 % 1020,9 hPa 0,0 l/m 0,3 km/h N 11,3 C 14,6 C 3,2 km/h
24.06.2012 06:00 15,1 C 79 % 1020,7 hPa 0,0 l/m 0,0 km/h N 11,6 C 15,1 C 1,2 km/h
24.06.2012 07:00 16,9 C 80 % 1020,3 hPa 0,0 l/m 0,1 km/h N 13,3 C 16,9 C 2,0 km/h
24.06.2012 08:00 21,5 C 72 % 1019,9 hPa 0,0 l/m 0,3 km/h N 16,2 C 21,5 C 4,4 km/h
24.06.2012 09:00 24,6 C 61 % 1019,3 hPa 0,0 l/m 1,7 km/h N 16,5 C 24,6 C 8,0 km/h
24.06.2012 10:00 25,8 C 55 % 1018,6 hPa 0,0 l/m 3,0 km/h N 16,0 C 25,8 C 12,1 km/h
24.06.2012 11:00 27,3 C 50 % 1017,7 hPa 0,0 l/m 3,7 km/h N 16,0 C 27,3 C 14,1 km/h
24.06.2012 12:00 28,4 C 48 % 1016,7 hPa 0,0 l/m 5,5 km/h N 16,3 C 28,3 C 22,1 km/h
24.06.2012 13:00 29,2 C 47 % 1015,6 hPa 0,0 l/m 5,5 km/h N 16,5 C 29,2 C 19,7 km/h
24.06.2012 14:00 29,6 C 43 % 1014,4 hPa 0,0 l/m 7,1 km/h N 15,5 C 29,5 C 24,1 km/h
24.06.2012 15:00 30,1 C 42 % 1013,5 hPa 0,0 l/m 8,1 km/h N 15,9 C 30,0 C 21,7 km/h
24.06.2012 16:00 29,8 C 43 % 1012,9 hPa 0,0 l/m 8,1 km/h N 15,7 C 29,6 C 22,1 km/h
24.06.2012 17:00 30,0 C 43 % 1012,1 hPa 0,0 l/m 7,1 km/h N 15,9 C 30,0 C 22,1 km/h
24.06.2012 18:00 29,8 C 43 % 1011,3 hPa 0,0 l/m 7,7 km/h N 15,9 C 29,6 C 21,7 km/h
24.06.2012 19:00 28,3 C 48 % 1010,8 hPa 0,0 l/m 6,2 km/h N 16,0 C 28,2 C 16,9 km/h
24.06.2012 20:00 26,9 C 52 % 1010,1 hPa 0,0 l/m 5,4 km/h N 16,0 C 26,9 C 17,7 km/h
24.06.2012 21:00 25,8 C 54 % 1010,5 hPa 0,0 l/m 3,1 km/h N 15,8 C 25,8 C 10,9 km/h
24.06.2012 22:00 23,4 C 64 % 1012,3 hPa 1,0 l/m 9,7 km/h N 16,0 C 22,0 C 33,0 km/h
24.06.2012 23:00 18,6 C 77 % 1012,7 hPa 1,6 l/m 13,9 km/h N 14,4 C 15,9 C 33,0 km/h
Min-Datum _ 24.06.12 18.06.12 21.06.12 - 18.06.12 - 24.06.12 24.06.12 18.06.12
_ Min-Zeit 04:15 14:15 18:30 - 00:00 - 05:45 05:30 00:00
Minimum _ 14,5 C 33 % 1007,1 hPa - 0,0 km/h - 11,2 C 14,5 C 0,0 km/h
Max-Datum _ 20.06.12 18.06.12 23.06.12 20.06.12 24.06.12 - 20.06.12 20.06.12 24.06.12
_ Max-Zeit 15:15 08:00 11:15 23:15 22:45 - 22:30 15:15 22:30
Maximum _ 34,8 C 82 % 1023,8 hPa 2,3 l/m 20,8 km/h
N
- 21,0 C 34,7 C 45,1 km/h
N
Durchschnitt _ 23,9 C 65 % 1014,9 hPa #10,9 l/m 3,7 km/h N 16,3 C 23,7 C 11,5 km/h